sensor_id;sensor_type;location;lat;lon;timestamp;temperature;humidity
6252;DHT22;3159;52.414;9.784;2022-10-17T00:00:29;14.80;99.90
6252;DHT22;3159;52.414;9.784;2022-10-17T00:02:56;14.80;99.90
6252;DHT22;3159;52.414;9.784;2022-10-17T00:05:24;14.60;99.90
6252;DHT22;3159;52.414;9.784;2022-10-17T00:07:51;14.60;99.90
6252;DHT22;3159;52.414;9.784;2022-10-17T00:10:18;14.60;99.90
6252;DHT22;3159;52.414;9.784;2022-10-17T00:12:45;14.60;99.90
6252;DHT22;3159;52.414;9.784;2022-10-17T00:15:16;14.60;99.90
6252;DHT22;3159;52.414;9.784;2022-10-17T00:17:43;14.60;99.90
6252;DHT22;3159;52.414;9.784;2022-10-17T00:20:11;14.50;99.90
6252;DHT22;3159;52.414;9.784;2022-10-17T00:22:38;14.50;99.90
6252;DHT22;3159;52.414;9.784;2022-10-17T00:25:05;14.50;99.90
6252;DHT22;3159;52.414;9.784;2022-10-17T00:27:34;14.50;99.90
6252;DHT22;3159;52.414;9.784;2022-10-17T00:30:01;14.50;99.90
6252;DHT22;3159;52.414;9.784;2022-10-17T00:32:29;14.60;99.90
6252;DHT22;3159;52.414;9.784;2022-10-17T00:34:56;14.60;99.90
6252;DHT22;3159;52.414;9.784;2022-10-17T00:37:24;14.60;99.90
6252;DHT22;3159;52.414;9.784;2022-10-17T00:39:51;14.50;99.90
6252;DHT22;3159;52.414;9.784;2022-10-17T00:42:17;14.50;99.90
6252;DHT22;3159;52.414;9.784;2022-10-17T00:47:47;14.50;99.90
6252;DHT22;3159;52.414;9.784;2022-10-17T00:50:14;14.50;99.90
6252;DHT22;3159;52.414;9.784;2022-10-17T00:52:42;14.50;99.90
6252;DHT22;3159;52.414;9.784;2022-10-17T00:55:15;14.50;99.90
6252;DHT22;3159;52.414;9.784;2022-10-17T00:57:44;14.50;99.90
6252;DHT22;3159;52.414;9.784;2022-10-17T01:00:13;14.50;99.90
6252;DHT22;3159;52.414;9.784;2022-10-17T01:02:40;14.50;99.90
6252;DHT22;3159;52.414;9.784;2022-10-17T01:05:09;14.50;99.90
6252;DHT22;3159;52.414;9.784;2022-10-17T01:07:38;14.40;99.90
6252;DHT22;3159;52.414;9.784;2022-10-17T01:10:06;14.40;99.90
6252;DHT22;3159;52.414;9.784;2022-10-17T01:12:41;14.40;99.90
6252;DHT22;3159;52.414;9.784;2022-10-17T01:15:14;14.40;99.90
6252;DHT22;3159;52.414;9.784;2022-10-17T01:17:52;14.30;99.90
6252;DHT22;3159;52.414;9.784;2022-10-17T01:21:01;14.30;99.90
6252;DHT22;3159;52.414;9.784;2022-10-17T01:23:53;14.40;99.90
6252;DHT22;3159;52.414;9.784;2022-10-17T01:26:36;14.40;99.90
6252;DHT22;3159;52.414;9.784;2022-10-17T01:32:06;14.40;99.90
6252;DHT22;3159;52.414;9.784;2022-10-17T01:34:40;14.50;99.90
6252;DHT22;3159;52.414;9.784;2022-10-17T01:37:17;14.40;99.90
6252;DHT22;3159;52.414;9.784;2022-10-17T01:39:47;14.30;99.90
6252;DHT22;3159;52.414;9.784;2022-10-17T01:42:20;14.40;99.90
6252;DHT22;3159;52.414;9.784;2022-10-17T01:44:52;14.40;99.90
6252;DHT22;3159;52.414;9.784;2022-10-17T01:47:26;14.50;99.90
6252;DHT22;3159;52.414;9.784;2022-10-17T01:49:56;14.50;99.90
6252;DHT22;3159;52.414;9.784;2022-10-17T01:52:27;14.40;99.90
6252;DHT22;3159;52.414;9.784;2022-10-17T01:54:57;14.40;99.90
6252;DHT22;3159;52.414;9.784;2022-10-17T01:57:29;14.30;99.90
6252;DHT22;3159;52.414;9.784;2022-10-17T02:00:00;14.30;99.90
6252;DHT22;3159;52.414;9.784;2022-10-17T02:02:30;14.30;99.90
6252;DHT22;3159;52.414;9.784;2022-10-17T02:04:58;14.30;99.90
6252;DHT22;3159;52.414;9.784;2022-10-17T02:07:27;14.30;99.90
6252;DHT22;3159;52.414;9.784;2022-10-17T02:09:54;14.20;99.90
6252;DHT22;3159;52.414;9.784;2022-10-17T02:12:34;14.20;99.90
6252;DHT22;3159;52.414;9.784;2022-10-17T02:18:05;14.30;99.90
6252;DHT22;3159;52.414;9.784;2022-10-17T02:20:38;14.30;99.90
6252;DHT22;3159;52.414;9.784;2022-10-17T02:23:10;14.30;99.90
6252;DHT22;3159;52.414;9.784;2022-10-17T02:25:45;14.30;99.90
6252;DHT22;3159;52.414;9.784;2022-10-17T02:28:19;14.20;99.90
6252;DHT22;3159;52.414;9.784;2022-10-17T02:30:50;14.30;99.90
6252;DHT22;3159;52.414;9.784;2022-10-17T02:33:24;14.30;99.90
6252;DHT22;3159;52.414;9.784;2022-10-17T02:35:57;14.40;99.90
6252;DHT22;3159;52.414;9.784;2022-10-17T02:38:26;14.40;99.90
6252;DHT22;3159;52.414;9.784;2022-10-17T02:40:55;14.40;99.90
6252;DHT22;3159;52.414;9.784;2022-10-17T02:43:22;14.40;99.90
6252;DHT22;3159;52.414;9.784;2022-10-17T02:45:50;14.30;99.90
6252;DHT22;3159;52.414;9.784;2022-10-17T02:48:25;14.40;99.90
6252;DHT22;3159;52.414;9.784;2022-10-17T02:50:59;14.30;99.90
6252;DHT22;3159;52.414;9.784;2022-10-17T02:53:32;14.20;99.90
6252;DHT22;3159;52.414;9.784;2022-10-17T02:56:07;14.20;99.90
6252;DHT22;3159;52.414;9.784;2022-10-17T02:58:37;14.20;99.90
6252;DHT22;3159;52.414;9.784;2022-10-17T03:01:05;14.10;99.90
6252;DHT22;3159;52.414;9.784;2022-10-17T03:03:33;14.20;99.90
6252;DHT22;3159;52.414;9.784;2022-10-17T03:06:00;14.20;99.90
6252;DHT22;3159;52.414;9.784;2022-10-17T03:08:27;14.20;99.90
6252;DHT22;3159;52.414;9.784;2022-10-17T03:10:54;14.10;99.90
6252;DHT22;3159;52.414;9.784;2022-10-17T03:13:21;14.10;99.90
6252;DHT22;3159;52.414;9.784;2022-10-17T03:15:48;14.10;99.90
6252;DHT22;3159;52.414;9.784;2022-10-17T03:18:15;14.10;99.90
6252;DHT22;3159;52.414;9.784;2022-10-17T03:20:43;14.20;99.90
6252;DHT22;3159;52.414;9.784;2022-10-17T03:23:10;14.20;99.90
6252;DHT22;3159;52.414;9.784;2022-10-17T03:25:37;14.30;99.90
6252;DHT22;3159;52.414;9.784;2022-10-17T03:28:04;14.30;99.90
6252;DHT22;3159;52.414;9.784;2022-10-17T03:30:31;14.30;99.90
6252;DHT22;3159;52.414;9.784;2022-10-17T03:32:58;14.40;99.90
6252;DHT22;3159;52.414;9.784;2022-10-17T03:35:25;14.30;99.90
6252;DHT22;3159;52.414;9.784;2022-10-17T03:37:55;14.30;99.90
6252;DHT22;3159;52.414;9.784;2022-10-17T03:40:22;14.20;99.90
6252;DHT22;3159;52.414;9.784;2022-10-17T03:42:49;14.20;99.90
6252;DHT22;3159;52.414;9.784;2022-10-17T03:45:16;14.20;99.90
6252;DHT22;3159;52.414;9.784;2022-10-17T03:47:43;14.20;99.90
6252;DHT22;3159;52.414;9.784;2022-10-17T03:50:10;14.20;99.90
6252;DHT22;3159;52.414;9.784;2022-10-17T03:52:37;14.20;99.90
6252;DHT22;3159;52.414;9.784;2022-10-17T03:55:05;14.20;99.90
6252;DHT22;3159;52.414;9.784;2022-10-17T03:57:33;14.20;99.90
6252;DHT22;3159;52.414;9.784;2022-10-17T04:00:00;14.20;99.90
6252;DHT22;3159;52.414;9.784;2022-10-17T04:02:27;14.20;99.90
6252;DHT22;3159;52.414;9.784;2022-10-17T04:04:54;14.30;99.90
6252;DHT22;3159;52.414;9.784;2022-10-17T04:07:21;14.30;99.90
6252;DHT22;3159;52.414;9.784;2022-10-17T04:09:48;14.20;99.90
6252;DHT22;3159;52.414;9.784;2022-10-17T04:12:16;14.20;99.90
6252;DHT22;3159;52.414;9.784;2022-10-17T04:14:43;14.20;99.90
6252;DHT22;3159;52.414;9.784;2022-10-17T04:17:10;14.10;99.90
6252;DHT22;3159;52.414;9.784;2022-10-17T04:19:36;14.20;99.90
6252;DHT22;3159;52.414;9.784;2022-10-17T04:22:03;14.20;99.90
6252;DHT22;3159;52.414;9.784;2022-10-17T04:24:33;14.20;99.90
6252;DHT22;3159;52.414;9.784;2022-10-17T04:26:59;14.20;99.90
6252;DHT22;3159;52.414;9.784;2022-10-17T04:29:28;14.20;99.90
6252;DHT22;3159;52.414;9.784;2022-10-17T04:31:55;14.30;99.90
6252;DHT22;3159;52.414;9.784;2022-10-17T04:34:21;14.30;99.90
6252;DHT22;3159;52.414;9.784;2022-10-17T04:36:48;14.30;99.90
6252;DHT22;3159;52.414;9.784;2022-10-17T04:39:16;14.30;99.90
6252;DHT22;3159;52.414;9.784;2022-10-17T04:41:43;14.30;99.90
6252;DHT22;3159;52.414;9.784;2022-10-17T04:44:10;14.30;99.90
6252;DHT22;3159;52.414;9.784;2022-10-17T04:46:38;14.40;99.90
6252;DHT22;3159;52.414;9.784;2022-10-17T04:49:05;14.30;99.90
6252;DHT22;3159;52.414;9.784;2022-10-17T04:51:32;14.30;99.90
6252;DHT22;3159;52.414;9.784;2022-10-17T04:53:59;14.30;99.90
6252;DHT22;3159;52.414;9.784;2022-10-17T04:56:26;14.30;99.90
6252;DHT22;3159;52.414;9.784;2022-10-17T04:58:52;14.30;99.90
6252;DHT22;3159;52.414;9.784;2022-10-17T05:01:20;14.30;99.90
6252;DHT22;3159;52.414;9.784;2022-10-17T05:03:49;14.30;99.90
6252;DHT22;3159;52.414;9.784;2022-10-17T05:06:17;14.30;99.90
6252;DHT22;3159;52.414;9.784;2022-10-17T05:08:45;14.30;99.90
6252;DHT22;3159;52.414;9.784;2022-10-17T05:11:19;14.30;99.90
6252;DHT22;3159;52.414;9.784;2022-10-17T05:13:49;14.30;99.90
6252;DHT22;3159;52.414;9.784;2022-10-17T05:16:16;14.40;99.90
6252;DHT22;3159;52.414;9.784;2022-10-17T05:18:43;14.40;99.90
6252;DHT22;3159;52.414;9.784;2022-10-17T05:21:11;14.50;99.90
6252;DHT22;3159;52.414;9.784;2022-10-17T05:23:38;14.60;99.90
6252;DHT22;3159;52.414;9.784;2022-10-17T05:26:05;14.60;99.90
6252;DHT22;3159;52.414;9.784;2022-10-17T05:28:32;14.60;99.90
6252;DHT22;3159;52.414;9.784;2022-10-17T05:31:02;14.80;99.90
6252;DHT22;3159;52.414;9.784;2022-10-17T05:33:29;14.90;99.90
6252;DHT22;3159;52.414;9.784;2022-10-17T05:35:56;14.90;99.90
6252;DHT22;3159;52.414;9.784;2022-10-17T05:38:24;15.00;99.90
6252;DHT22;3159;52.414;9.784;2022-10-17T05:40:50;15.10;99.90
6252;DHT22;3159;52.414;9.784;2022-10-17T05:43:17;15.10;99.90
6252;DHT22;3159;52.414;9.784;2022-10-17T05:45:44;15.10;99.90
6252;DHT22;3159;52.414;9.784;2022-10-17T05:48:11;15.20;99.90
6252;DHT22;3159;52.414;9.784;2022-10-17T05:50:38;15.20;99.90
6252;DHT22;3159;52.414;9.784;2022-10-17T05:53:04;15.30;99.90
6252;DHT22;3159;52.414;9.784;2022-10-17T05:55:33;15.30;99.90
6252;DHT22;3159;52.414;9.784;2022-10-17T05:58:00;15.30;99.90
6252;DHT22;3159;52.414;9.784;2022-10-17T06:00:27;15.40;99.90
6252;DHT22;3159;52.414;9.784;2022-10-17T06:02:53;15.40;99.90
6252;DHT22;3159;52.414;9.784;2022-10-17T06:05:21;15.40;99.90
6252;DHT22;3159;52.414;9.784;2022-10-17T06:07:48;15.50;99.90
6252;DHT22;3159;52.414;9.784;2022-10-17T06:10:17;15.50;99.90
6252;DHT22;3159;52.414;9.784;2022-10-17T06:12:45;15.50;99.90
6252;DHT22;3159;52.414;9.784;2022-10-17T06:15:12;15.50;99.90
6252;DHT22;3159;52.414;9.784;2022-10-17T06:17:39;15.50;99.90
6252;DHT22;3159;52.414;9.784;2022-10-17T06:20:07;15.60;99.90
6252;DHT22;3159;52.414;9.784;2022-10-17T06:22:34;15.60;99.90
6252;DHT22;3159;52.414;9.784;2022-10-17T06:25:01;15.60;99.90
6252;DHT22;3159;52.414;9.784;2022-10-17T06:27:28;15.60;99.90
6252;DHT22;3159;52.414;9.784;2022-10-17T06:29:56;15.60;99.90
6252;DHT22;3159;52.414;9.784;2022-10-17T06:32:23;15.70;99.90
6252;DHT22;3159;52.414;9.784;2022-10-17T06:34:49;15.70;99.90
6252;DHT22;3159;52.414;9.784;2022-10-17T06:37:16;15.70;99.90
6252;DHT22;3159;52.414;9.784;2022-10-17T06:39:43;15.80;99.90
6252;DHT22;3159;52.414;9.784;2022-10-17T06:42:10;15.80;99.90
6252;DHT22;3159;52.414;9.784;2022-10-17T06:44:37;15.90;99.90
6252;DHT22;3159;52.414;9.784;2022-10-17T06:47:07;16.00;99.90
6252;DHT22;3159;52.414;9.784;2022-10-17T06:49:34;16.10;99.90
6252;DHT22;3159;52.414;9.784;2022-10-17T06:52:01;16.20;99.90
6252;DHT22;3159;52.414;9.784;2022-10-17T06:54:28;16.30;99.90
6252;DHT22;3159;52.414;9.784;2022-10-17T06:56:55;16.40;99.90
6252;DHT22;3159;52.414;9.784;2022-10-17T06:59:22;16.50;99.90
6252;DHT22;3159;52.414;9.784;2022-10-17T07:01:49;16.50;99.90
6252;DHT22;3159;52.414;9.784;2022-10-17T07:04:17;16.70;99.90
6252;DHT22;3159;52.414;9.784;2022-10-17T07:06:44;16.80;99.90
6252;DHT22;3159;52.414;9.784;2022-10-17T07:09:11;16.70;99.90
6252;DHT22;3159;52.414;9.784;2022-10-17T07:11:38;16.60;99.90
6252;DHT22;3159;52.414;9.784;2022-10-17T07:14:05;16.60;99.90
6252;DHT22;3159;52.414;9.784;2022-10-17T07:16:32;16.60;99.90
6252;DHT22;3159;52.414;9.784;2022-10-17T07:18:59;16.70;99.90
6252;DHT22;3159;52.414;9.784;2022-10-17T07:21:29;16.80;99.90
6252;DHT22;3159;52.414;9.784;2022-10-17T07:23:56;16.80;99.90
6252;DHT22;3159;52.414;9.784;2022-10-17T07:26:22;17.00;99.90
6252;DHT22;3159;52.414;9.784;2022-10-17T07:28:51;17.20;99.90
6252;DHT22;3159;52.414;9.784;2022-10-17T07:31:20;17.30;99.90
6252;DHT22;3159;52.414;9.784;2022-10-17T07:33:48;17.40;99.90
6252;DHT22;3159;52.414;9.784;2022-10-17T07:36:16;17.40;99.90
6252;DHT22;3159;52.414;9.784;2022-10-17T07:38:44;17.60;99.90
6252;DHT22;3159;52.414;9.784;2022-10-17T07:41:12;17.70;99.90
6252;DHT22;3159;52.414;9.784;2022-10-17T07:43:39;17.70;99.90
6252;DHT22;3159;52.414;9.784;2022-10-17T07:46:07;17.90;99.90
6252;DHT22;3159;52.414;9.784;2022-10-17T07:48:36;17.90;99.90
6252;DHT22;3159;52.414;9.784;2022-10-17T07:51:05;18.00;99.90
6252;DHT22;3159;52.414;9.784;2022-10-17T07:53:34;18.10;99.90
6252;DHT22;3159;52.414;9.784;2022-10-17T07:56:04;18.10;99.90
6252;DHT22;3159;52.414;9.784;2022-10-17T07:58:32;18.00;99.90
6252;DHT22;3159;52.414;9.784;2022-10-17T08:01:00;18.10;99.90
6252;DHT22;3159;52.414;9.784;2022-10-17T08:03:27;18.10;99.90
6252;DHT22;3159;52.414;9.784;2022-10-17T08:05:56;18.10;99.90
6252;DHT22;3159;52.414;9.784;2022-10-17T08:08:24;18.20;99.90
6252;DHT22;3159;52.414;9.784;2022-10-17T08:10:51;18.10;99.90
6252;DHT22;3159;52.414;9.784;2022-10-17T08:13:20;18.20;99.90
6252;DHT22;3159;52.414;9.784;2022-10-17T08:15:47;18.40;99.90
6252;DHT22;3159;52.414;9.784;2022-10-17T08:18:14;18.50;99.90
6252;DHT22;3159;52.414;9.784;2022-10-17T08:20:42;18.80;99.90
6252;DHT22;3159;52.414;9.784;2022-10-17T08:23:09;18.80;99.90
6252;DHT22;3159;52.414;9.784;2022-10-17T08:25:37;18.90;99.90
6252;DHT22;3159;52.414;9.784;2022-10-17T08:28:05;19.10;99.90
6252;DHT22;3159;52.414;9.784;2022-10-17T08:30:33;19.10;99.90
6252;DHT22;3159;52.414;9.784;2022-10-17T08:33:00;19.40;99.90
6252;DHT22;3159;52.414;9.784;2022-10-17T08:35:28;19.40;99.90
6252;DHT22;3159;52.414;9.784;2022-10-17T08:37:57;19.30;99.90
6252;DHT22;3159;52.414;9.784;2022-10-17T08:40:27;19.20;99.90
6252;DHT22;3159;52.414;9.784;2022-10-17T08:43:10;19.50;99.90
6252;DHT22;3159;52.414;9.784;2022-10-17T08:45:46;19.80;99.90
6252;DHT22;3159;52.414;9.784;2022-10-17T08:48:17;19.80;99.90
6252;DHT22;3159;52.414;9.784;2022-10-17T08:50:48;19.80;99.90
6252;DHT22;3159;52.414;9.784;2022-10-17T08:53:19;19.60;99.90
6252;DHT22;3159;52.414;9.784;2022-10-17T08:55:48;19.70;99.90
6252;DHT22;3159;52.414;9.784;2022-10-17T08:58:19;19.60;99.90
6252;DHT22;3159;52.414;9.784;2022-10-17T09:00:52;19.40;99.90
6252;DHT22;3159;52.414;9.784;2022-10-17T09:03:33;19.60;99.90
6252;DHT22;3159;52.414;9.784;2022-10-17T09:06:13;19.50;99.90
6252;DHT22;3159;52.414;9.784;2022-10-17T09:08:47;19.60;99.90
6252;DHT22;3159;52.414;9.784;2022-10-17T09:11:30;19.70;99.90
6252;DHT22;3159;52.414;9.784;2022-10-17T09:14:07;19.60;99.90
6252;DHT22;3159;52.414;9.784;2022-10-17T09:16:50;19.70;99.90
6252;DHT22;3159;52.414;9.784;2022-10-17T09:19:21;19.60;99.90
6252;DHT22;3159;52.414;9.784;2022-10-17T09:21:52;19.60;99.90
6252;DHT22;3159;52.414;9.784;2022-10-17T09:24:26;19.60;99.90
6252;DHT22;3159;52.414;9.784;2022-10-17T09:26:56;19.70;99.90
6252;DHT22;3159;52.414;9.784;2022-10-17T09:29:25;19.80;99.90
6252;DHT22;3159;52.414;9.784;2022-10-17T12:06:42;21.60;99.90
6252;DHT22;3159;52.414;9.784;2022-10-17T12:09:19;22.10;99.90
6252;DHT22;3159;52.414;9.784;2022-10-17T12:11:51;22.10;99.90
6252;DHT22;3159;52.414;9.784;2022-10-17T12:14:38;22.20;99.90
6252;DHT22;3159;52.414;9.784;2022-10-17T12:17:20;22.40;99.90
6252;DHT22;3159;52.414;9.784;2022-10-17T12:19:48;22.50;99.90
6252;DHT22;3159;52.414;9.784;2022-10-17T12:22:20;22.40;99.90
6252;DHT22;3159;52.414;9.784;2022-10-17T12:24:58;22.50;99.90
6252;DHT22;3159;52.414;9.784;2022-10-17T12:27:41;22.50;99.90
6252;DHT22;3159;52.414;9.784;2022-10-17T12:30:17;22.50;99.90
6252;DHT22;3159;52.414;9.784;2022-10-17T12:33:16;22.40;99.90
6252;DHT22;3159;52.414;9.784;2022-10-17T12:35:47;22.50;99.90
6252;DHT22;3159;52.414;9.784;2022-10-17T12:38:25;22.50;99.90
6252;DHT22;3159;52.414;9.784;2022-10-17T12:40:57;22.50;99.90
6252;DHT22;3159;52.414;9.784;2022-10-17T12:43:45;22.50;99.90
6252;DHT22;3159;52.414;9.784;2022-10-17T12:46:44;22.50;99.90
6252;DHT22;3159;52.414;9.784;2022-10-17T12:52:21;22.40;99.90
6252;DHT22;3159;52.414;9.784;2022-10-17T12:54:53;22.50;99.90
6252;DHT22;3159;52.414;9.784;2022-10-17T12:57:24;22.60;99.90
6252;DHT22;3159;52.414;9.784;2022-10-17T12:59:52;22.60;99.90
6252;DHT22;3159;52.414;9.784;2022-10-17T13:02:24;22.60;99.90
6252;DHT22;3159;52.414;9.784;2022-10-17T13:04:56;22.70;99.90
6252;DHT22;3159;52.414;9.784;2022-10-17T13:07:25;22.60;99.90
6252;DHT22;3159;52.414;9.784;2022-10-17T13:09:52;22.60;99.90
6252;DHT22;3159;52.414;9.784;2022-10-17T13:12:21;22.60;99.90
6252;DHT22;3159;52.414;9.784;2022-10-17T13:14:50;22.50;99.90
6252;DHT22;3159;52.414;9.784;2022-10-17T13:17:25;22.60;99.90
6252;DHT22;3159;52.414;9.784;2022-10-17T13:19:53;22.60;99.90
6252;DHT22;3159;52.414;9.784;2022-10-17T13:22:21;22.50;99.90
6252;DHT22;3159;52.414;9.784;2022-10-17T13:24:50;22.40;99.90
6252;DHT22;3159;52.414;9.784;2022-10-17T13:27:25;22.30;99.90
6252;DHT22;3159;52.414;9.784;2022-10-17T13:29:53;22.20;99.90
6252;DHT22;3159;52.414;9.784;2022-10-17T13:32:23;22.20;99.90
6252;DHT22;3159;52.414;9.784;2022-10-17T13:35:15;22.20;99.90
6252;DHT22;3159;52.414;9.784;2022-10-17T13:37:45;22.20;99.90
6252;DHT22;3159;52.414;9.784;2022-10-17T13:40:16;22.20;99.90
6252;DHT22;3159;52.414;9.784;2022-10-17T13:42:44;22.20;99.90
6252;DHT22;3159;52.414;9.784;2022-10-17T13:45:17;22.20;99.90
6252;DHT22;3159;52.414;9.784;2022-10-17T13:47:46;22.20;99.90
6252;DHT22;3159;52.414;9.784;2022-10-17T13:50:20;22.10;99.90
6252;DHT22;3159;52.414;9.784;2022-10-17T13:52:49;22.20;99.90
6252;DHT22;3159;52.414;9.784;2022-10-17T13:55:30;22.20;99.90
6252;DHT22;3159;52.414;9.784;2022-10-17T13:58:08;22.20;99.90
6252;DHT22;3159;52.414;9.784;2022-10-17T14:00:35;22.10;99.90
6252;DHT22;3159;52.414;9.784;2022-10-17T14:03:04;22.10;99.90
6252;DHT22;3159;52.414;9.784;2022-10-17T14:05:32;22.20;99.90
6252;DHT22;3159;52.414;9.784;2022-10-17T14:08:02;22.00;99.90
6252;DHT22;3159;52.414;9.784;2022-10-17T14:10:30;22.10;99.90
6252;DHT22;3159;52.414;9.784;2022-10-17T14:12:59;22.00;99.90
6252;DHT22;3159;52.414;9.784;2022-10-17T14:15:27;22.00;99.90
6252;DHT22;3159;52.414;9.784;2022-10-17T14:17:57;22.00;99.90
6252;DHT22;3159;52.414;9.784;2022-10-17T14:20:26;22.00;99.90
6252;DHT22;3159;52.414;9.784;2022-10-17T14:22:54;22.00;99.90
6252;DHT22;3159;52.414;9.784;2022-10-17T14:25:29;22.00;99.90
6252;DHT22;3159;52.414;9.784;2022-10-17T14:28:00;22.00;99.90
6252;DHT22;3159;52.414;9.784;2022-10-17T14:30:34;22.00;99.90
6252;DHT22;3159;52.414;9.784;2022-10-17T14:33:04;22.00;99.90
6252;DHT22;3159;52.414;9.784;2022-10-17T14:35:33;22.00;99.90
6252;DHT22;3159;52.414;9.784;2022-10-17T14:38:01;22.00;99.90
6252;DHT22;3159;52.414;9.784;2022-10-17T14:40:30;21.90;99.90
6252;DHT22;3159;52.414;9.784;2022-10-17T14:42:59;21.90;99.90
6252;DHT22;3159;52.414;9.784;2022-10-17T14:45:30;22.00;99.90
6252;DHT22;3159;52.414;9.784;2022-10-17T14:48:03;22.00;99.90
6252;DHT22;3159;52.414;9.784;2022-10-17T14:50:32;22.00;99.90
6252;DHT22;3159;52.414;9.784;2022-10-17T14:53:03;22.00;99.90
6252;DHT22;3159;52.414;9.784;2022-10-17T14:55:32;22.10;99.90
6252;DHT22;3159;52.414;9.784;2022-10-17T14:57:59;22.10;99.90
6252;DHT22;3159;52.414;9.784;2022-10-17T15:00:27;22.10;99.90
6252;DHT22;3159;52.414;9.784;2022-10-17T15:02:54;22.00;99.90
6252;DHT22;3159;52.414;9.784;2022-10-17T15:05:21;22.00;99.90
6252;DHT22;3159;52.414;9.784;2022-10-17T15:07:50;21.80;99.90
6252;DHT22;3159;52.414;9.784;2022-10-17T15:10:26;21.70;99.90
6252;DHT22;3159;52.414;9.784;2022-10-17T15:12:54;21.60;99.90
6252;DHT22;3159;52.414;9.784;2022-10-17T15:15:21;21.60;99.90
6252;DHT22;3159;52.414;9.784;2022-10-17T15:17:47;21.60;99.90
6252;DHT22;3159;52.414;9.784;2022-10-17T15:20:16;21.50;99.90
6252;DHT22;3159;52.414;9.784;2022-10-17T15:22:44;21.50;99.90
6252;DHT22;3159;52.414;9.784;2022-10-17T15:25:12;21.50;99.90
6252;DHT22;3159;52.414;9.784;2022-10-17T15:27:39;21.50;99.90
6252;DHT22;3159;52.414;9.784;2022-10-17T15:30:16;21.40;99.90
6252;DHT22;3159;52.414;9.784;2022-10-17T15:32:44;21.40;99.90
6252;DHT22;3159;52.414;9.784;2022-10-17T15:35:11;21.40;99.90
6252;DHT22;3159;52.414;9.784;2022-10-17T15:37:38;21.30;99.90
6252;DHT22;3159;52.414;9.784;2022-10-17T15:40:06;21.30;99.90
6252;DHT22;3159;52.414;9.784;2022-10-17T15:42:34;21.20;99.90
6252;DHT22;3159;52.414;9.784;2022-10-17T15:45:01;21.20;99.90
6252;DHT22;3159;52.414;9.784;2022-10-17T15:47:29;21.20;99.90
6252;DHT22;3159;52.414;9.784;2022-10-17T15:49:57;21.20;99.90
6252;DHT22;3159;52.414;9.784;2022-10-17T15:52:25;21.20;99.90
6252;DHT22;3159;52.414;9.784;2022-10-17T15:54:53;21.10;99.90
6252;DHT22;3159;52.414;9.784;2022-10-17T15:57:22;21.10;99.90
6252;DHT22;3159;52.414;9.784;2022-10-17T15:59:52;21.10;99.90
6252;DHT22;3159;52.414;9.784;2022-10-17T16:02:21;21.10;99.90
6252;DHT22;3159;52.414;9.784;2022-10-17T16:04:49;21.20;99.90
6252;DHT22;3159;52.414;9.784;2022-10-17T16:07:16;21.10;99.90
6252;DHT22;3159;52.414;9.784;2022-10-17T16:09:43;21.10;99.90
6252;DHT22;3159;52.414;9.784;2022-10-17T16:12:11;21.10;99.90
6252;DHT22;3159;52.414;9.784;2022-10-17T16:14:39;21.10;99.90
6252;DHT22;3159;52.414;9.784;2022-10-17T16:17:08;21.10;99.90
6252;DHT22;3159;52.414;9.784;2022-10-17T16:19:36;21.10;99.90
6252;DHT22;3159;52.414;9.784;2022-10-17T16:22:03;21.10;99.90
6252;DHT22;3159;52.414;9.784;2022-10-17T16:24:31;21.00;99.90
6252;DHT22;3159;52.414;9.784;2022-10-17T16:26:58;21.00;99.90
6252;DHT22;3159;52.414;9.784;2022-10-17T16:29:26;21.00;99.90
6252;DHT22;3159;52.414;9.784;2022-10-17T16:31:53;21.00;99.90
6252;DHT22;3159;52.414;9.784;2022-10-17T16:34:21;20.90;99.90
6252;DHT22;3159;52.414;9.784;2022-10-17T16:36:48;20.90;99.90
6252;DHT22;3159;52.414;9.784;2022-10-17T16:39:14;21.00;99.90
6252;DHT22;3159;52.414;9.784;2022-10-17T16:41:41;21.00;99.90
6252;DHT22;3159;52.414;9.784;2022-10-17T16:44:11;21.00;99.90
6252;DHT22;3159;52.414;9.784;2022-10-17T16:46:39;21.10;99.90
6252;DHT22;3159;52.414;9.784;2022-10-17T16:49:06;21.00;99.90
6252;DHT22;3159;52.414;9.784;2022-10-17T16:51:34;21.00;99.90
6252;DHT22;3159;52.414;9.784;2022-10-17T16:54:02;21.00;99.90
6252;DHT22;3159;52.414;9.784;2022-10-17T16:56:29;21.00;99.90
6252;DHT22;3159;52.414;9.784;2022-10-17T16:58:57;21.00;99.90
6252;DHT22;3159;52.414;9.784;2022-10-17T17:01:25;21.00;99.90
6252;DHT22;3159;52.414;9.784;2022-10-17T17:03:54;20.90;99.90
6252;DHT22;3159;52.414;9.784;2022-10-17T17:06:23;21.00;99.90
6252;DHT22;3159;52.414;9.784;2022-10-17T17:08:52;20.80;99.90
6252;DHT22;3159;52.414;9.784;2022-10-17T17:11:20;20.80;99.90
6252;DHT22;3159;52.414;9.784;2022-10-17T17:13:47;20.80;99.90
6252;DHT22;3159;52.414;9.784;2022-10-17T17:16:16;20.80;99.90
6252;DHT22;3159;52.414;9.784;2022-10-17T17:18:43;20.70;99.90
6252;DHT22;3159;52.414;9.784;2022-10-17T17:21:11;20.70;99.90
6252;DHT22;3159;52.414;9.784;2022-10-17T17:23:40;20.70;99.90
6252;DHT22;3159;52.414;9.784;2022-10-17T17:26:10;20.60;99.90
6252;DHT22;3159;52.414;9.784;2022-10-17T17:28:37;20.60;99.90
6252;DHT22;3159;52.414;9.784;2022-10-17T17:31:06;20.50;99.90
6252;DHT22;3159;52.414;9.784;2022-10-17T17:33:35;20.50;99.90
6252;DHT22;3159;52.414;9.784;2022-10-17T17:36:03;20.50;99.90
6252;DHT22;3159;52.414;9.784;2022-10-17T17:38:31;20.50;99.90
6252;DHT22;3159;52.414;9.784;2022-10-17T17:40:59;20.50;99.90
6252;DHT22;3159;52.414;9.784;2022-10-17T17:43:27;20.50;99.90
6252;DHT22;3159;52.414;9.784;2022-10-17T17:45:54;20.40;99.90
6252;DHT22;3159;52.414;9.784;2022-10-17T17:48:21;20.40;99.90
6252;DHT22;3159;52.414;9.784;2022-10-17T17:50:48;20.30;99.90
6252;DHT22;3159;52.414;9.784;2022-10-17T17:53:15;20.30;99.90
6252;DHT22;3159;52.414;9.784;2022-10-17T17:55:42;20.30;99.90
6252;DHT22;3159;52.414;9.784;2022-10-17T17:58:09;20.30;99.90
6252;DHT22;3159;52.414;9.784;2022-10-17T18:00:38;20.30;99.90
6252;DHT22;3159;52.414;9.784;2022-10-17T18:03:06;20.30;99.90
6252;DHT22;3159;52.414;9.784;2022-10-17T18:05:33;20.30;99.90
6252;DHT22;3159;52.414;9.784;2022-10-17T18:08:00;20.40;99.90
6252;DHT22;3159;52.414;9.784;2022-10-17T18:10:29;20.40;99.90
6252;DHT22;3159;52.414;9.784;2022-10-17T18:12:56;20.40;99.90
6252;DHT22;3159;52.414;9.784;2022-10-17T18:15:22;20.40;99.90
6252;DHT22;3159;52.414;9.784;2022-10-17T18:17:51;20.30;99.90
6252;DHT22;3159;52.414;9.784;2022-10-17T18:20:17;20.40;99.90
6252;DHT22;3159;52.414;9.784;2022-10-17T18:22:44;20.30;99.90
6252;DHT22;3159;52.414;9.784;2022-10-17T18:25:11;20.30;99.90
6252;DHT22;3159;52.414;9.784;2022-10-17T18:27:38;20.20;99.90
6252;DHT22;3159;52.414;9.784;2022-10-17T18:30:06;20.20;99.90
6252;DHT22;3159;52.414;9.784;2022-10-17T18:32:33;20.20;99.90
6252;DHT22;3159;52.414;9.784;2022-10-17T18:35:01;20.00;99.90
6252;DHT22;3159;52.414;9.784;2022-10-17T18:37:28;20.10;99.90
6252;DHT22;3159;52.414;9.784;2022-10-17T18:39:55;19.90;99.90
6252;DHT22;3159;52.414;9.784;2022-10-17T18:42:22;19.80;99.90
6252;DHT22;3159;52.414;9.784;2022-10-17T18:44:49;19.80;99.90
6252;DHT22;3159;52.414;9.784;2022-10-17T18:47:15;19.90;99.90
6252;DHT22;3159;52.414;9.784;2022-10-17T18:49:42;19.90;99.90
6252;DHT22;3159;52.414;9.784;2022-10-17T18:52:11;19.90;99.90
6252;DHT22;3159;52.414;9.784;2022-10-17T18:54:37;19.90;99.90
6252;DHT22;3159;52.414;9.784;2022-10-17T18:57:04;19.90;99.90
6252;DHT22;3159;52.414;9.784;2022-10-17T18:59:31;20.00;99.90
6252;DHT22;3159;52.414;9.784;2022-10-17T19:01:58;20.00;99.90